Flatval Airport


Codes: ENFA/
Name: Flatval Airport
City: Froya
Country: Norway
Elevation: 152 ft.

Photos at Flatval Airport


   Photos courtesy of SpottingLog. You can add your own sightings and photos by signing up for a free trial today.



No photos found.

Weather at Flatval Airport


Time (UTC)DescriptionTempratureWindCloud coverageVisibilityPressureHumidity
16-Jun-2024 09:00Overcast Clouds16°C25 mph, E97%10000m1002hPa67%
16-Jun-2024 12:00Overcast Clouds15°C11 mph, S88%10000m1002hPa69%
16-Jun-2024 15:00Overcast Clouds14°C20 mph, SW99%10000m1005hPa77%
16-Jun-2024 18:00Overcast Clouds12°C9 mph, SW100%10000m1007hPa86%
16-Jun-2024 21:00Broken Clouds12°C4 mph, SW55%10000m1008hPa83%
17-Jun-2024 00:00Scattered Clouds12°C7 mph, E35%10000m1009hPa84%
17-Jun-2024 03:00Clear Sky12°C7 mph, E2%10000m1008hPa83%
17-Jun-2024 06:00Few Clouds12°C9 mph, E22%10000m1008hPa84%
17-Jun-2024 09:00Broken Clouds13°C7 mph, NE77%10000m1006hPa76%
17-Jun-2024 12:00Overcast Clouds17°C11 mph, SE89%10000m1005hPa61%
17-Jun-2024 15:00Overcast Clouds15°C20 mph, SW100%10000m1005hPa69%
17-Jun-2024 18:00Overcast Clouds12°C18 mph, SW100%10000m1008hPa86%
17-Jun-2024 21:00Overcast Clouds12°C11 mph, SW100%10000m1009hPa90%
18-Jun-2024 00:00Overcast Clouds11°C9 mph, SW100%10000m1009hPa89%
18-Jun-2024 03:00Overcast Clouds11°C7 mph, W100%10000m1008hPa89%
18-Jun-2024 06:00Overcast Clouds12°C2 mph, W99%10000m1008hPa86%
18-Jun-2024 09:00Overcast Clouds12°C7 mph, W92%10000m1008hPa84%
18-Jun-2024 12:00Overcast Clouds12°C11 mph, W93%10000m1008hPa86%
18-Jun-2024 15:00Overcast Clouds11°C13 mph, NW96%10000m1008hPa81%
18-Jun-2024 18:00Overcast Clouds11°C16 mph, NW98%10000m1009hPa81%
18-Jun-2024 21:00Light Rain10°C18 mph, NW100%10000m1011hPa79%
19-Jun-2024 00:00Light Rain9°C18 mph, NW100%10000m1011hPa76%
19-Jun-2024 03:00Light Rain9°C18 mph, NW100%10000m1012hPa65%
19-Jun-2024 06:00Overcast Clouds9°C13 mph, W100%10000m1012hPa56%
19-Jun-2024 09:00Overcast Clouds9°C11 mph, W100%10000m1012hPa61%
19-Jun-2024 12:00Overcast Clouds9°C9 mph, SW100%10000m1010hPa60%
19-Jun-2024 15:00Overcast Clouds10°C2 mph, W100%10000m1007hPa58%
19-Jun-2024 18:00Light Rain9°C2 mph, E100%10000m1003hPa67%
19-Jun-2024 21:00Moderate Rain9°C13 mph, S100%10000m1000hPa87%
20-Jun-2024 00:00Light Rain11°C36 mph, SW100%10000m999hPa88%
20-Jun-2024 03:00Light Rain10°C27 mph, W86%10000m1001hPa79%
20-Jun-2024 06:00Overcast Clouds10°C29 mph, W95%10000m1001hPa72%
20-Jun-2024 09:00Overcast Clouds10°C31 mph, W91%10000m1003hPa69%
20-Jun-2024 12:00Overcast Clouds10°C29 mph, W94%10000m1004hPa76%
20-Jun-2024 15:00Light Rain10°C31 mph, W69%10000m1004hPa82%
20-Jun-2024 18:00Light Rain10°C31 mph, W82%10000m1004hPa83%
20-Jun-2024 21:00Light Rain10°C29 mph, W59%10000m1006hPa79%
21-Jun-2024 00:00Light Rain10°C22 mph, W76%10000m1007hPa80%
21-Jun-2024 03:00Light Rain10°C18 mph, W99%10000m1007hPa85%
21-Jun-2024 06:00Light Rain10°C20 mph, W100%10000m1009hPa84%